sensor_id;sensor_type;location;lat;lon;timestamp;P1;durP1;ratioP1;P2;durP2;ratioP2
41633;SDS011;37274;51.150;4.808;2022-07-30T00:01:12;0.65;;;0.47;;
41633;SDS011;37274;51.150;4.808;2022-07-30T00:03:39;1.35;;;0.50;;
41633;SDS011;37274;51.150;4.808;2022-07-30T00:06:06;0.85;;;0.35;;
41633;SDS011;37274;51.150;4.808;2022-07-30T00:08:33;1.20;;;0.30;;
41633;SDS011;37274;51.150;4.808;2022-07-30T00:11:00;2.60;;;0.70;;
41633;SDS011;37274;51.150;4.808;2022-07-30T00:13:26;0.68;;;0.40;;
41633;SDS011;37274;51.150;4.808;2022-07-30T00:15:53;0.82;;;0.35;;
41633;SDS011;37274;51.150;4.808;2022-07-30T00:18:20;1.05;;;0.52;;
41633;SDS011;37274;51.150;4.808;2022-07-30T00:20:47;0.50;;;0.40;;
41633;SDS011;37274;51.150;4.808;2022-07-30T00:23:14;0.50;;;0.25;;
41633;SDS011;37274;51.150;4.808;2022-07-30T00:25:41;1.23;;;0.30;;
41633;SDS011;37274;51.150;4.808;2022-07-30T00:28:07;0.20;;;0.20;;
41633;SDS011;37274;51.150;4.808;2022-07-30T00:30:34;0.73;;;0.40;;
41633;SDS011;37274;51.150;4.808;2022-07-30T00:33:01;0.43;;;0.43;;
41633;SDS011;37274;51.150;4.808;2022-07-30T00:35:28;0.50;;;0.22;;
41633;SDS011;37274;51.150;4.808;2022-07-30T00:37:55;1.17;;;0.52;;
41633;SDS011;37274;51.150;4.808;2022-07-30T00:40:21;0.57;;;0.30;;
41633;SDS011;37274;51.150;4.808;2022-07-30T00:42:48;0.40;;;0.30;;
41633;SDS011;37274;51.150;4.808;2022-07-30T00:45:16;0.65;;;0.43;;
41633;SDS011;37274;51.150;4.808;2022-07-30T00:47:44;0.40;;;0.40;;
41633;SDS011;37274;51.150;4.808;2022-07-30T00:50:11;0.95;;;0.38;;
41633;SDS011;37274;51.150;4.808;2022-07-30T00:52:39;0.50;;;0.40;;
41633;SDS011;37274;51.150;4.808;2022-07-30T00:55:07;1.13;;;0.52;;
41633;SDS011;37274;51.150;4.808;2022-07-30T00:57:35;0.43;;;0.43;;
41633;SDS011;37274;51.150;4.808;2022-07-30T01:00:05;1.02;;;0.55;;
41633;SDS011;37274;51.150;4.808;2022-07-30T01:02:33;0.50;;;0.30;;
41633;SDS011;37274;51.150;4.808;2022-07-30T01:05:00;0.40;;;0.40;;
41633;SDS011;37274;51.150;4.808;2022-07-30T01:07:27;1.35;;;0.30;;
41633;SDS011;37274;51.150;4.808;2022-07-30T01:09:54;0.55;;;0.52;;
41633;SDS011;37274;51.150;4.808;2022-07-30T01:12:22;0.70;;;0.40;;
41633;SDS011;37274;51.150;4.808;2022-07-30T01:14:50;0.40;;;0.40;;
41633;SDS011;37274;51.150;4.808;2022-07-30T01:17:17;1.10;;;0.50;;
41633;SDS011;37274;51.150;4.808;2022-07-30T01:19:44;0.30;;;0.30;;
41633;SDS011;37274;51.150;4.808;2022-07-30T01:22:25;0.90;;;0.30;;
41633;SDS011;37274;51.150;4.808;2022-07-30T01:27:56;0.52;;;0.32;;
41633;SDS011;37274;51.150;4.808;2022-07-30T01:30:26;0.50;;;0.40;;
41633;SDS011;37274;51.150;4.808;2022-07-30T01:32:55;1.30;;;0.40;;
41633;SDS011;37274;51.150;4.808;2022-07-30T01:35:23;0.98;;;0.63;;
41633;SDS011;37274;51.150;4.808;2022-07-30T01:37:52;1.40;;;0.40;;
41633;SDS011;37274;51.150;4.808;2022-07-30T01:40:20;0.57;;;0.47;;
41633;SDS011;37274;51.150;4.808;2022-07-30T01:42:48;0.22;;;0.22;;
41633;SDS011;37274;51.150;4.808;2022-07-30T01:45:23;1.98;;;0.57;;
41633;SDS011;37274;51.150;4.808;2022-07-30T01:47:54;0.65;;;0.40;;
41633;SDS011;37274;51.150;4.808;2022-07-30T01:50:22;1.40;;;0.45;;
41633;SDS011;37274;51.150;4.808;2022-07-30T01:52:50;0.52;;;0.30;;
41633;SDS011;37274;51.150;4.808;2022-07-30T01:55:20;0.45;;;0.45;;
41633;SDS011;37274;51.150;4.808;2022-07-30T01:57:50;0.85;;;0.50;;
41633;SDS011;37274;51.150;4.808;2022-07-30T02:00:17;0.65;;;0.40;;
41633;SDS011;37274;51.150;4.808;2022-07-30T02:02:44;2.92;;;0.77;;
41633;SDS011;37274;51.150;4.808;2022-07-30T02:05:11;6.00;;;1.30;;
41633;SDS011;37274;51.150;4.808;2022-07-30T02:07:45;2.90;;;0.63;;
41633;SDS011;37274;51.150;4.808;2022-07-30T02:10:30;1.85;;;0.82;;
41633;SDS011;37274;51.150;4.808;2022-07-30T02:13:02;1.98;;;0.57;;
41633;SDS011;37274;51.150;4.808;2022-07-30T02:15:40;3.70;;;0.75;;
41633;SDS011;37274;51.150;4.808;2022-07-30T02:21:05;0.63;;;0.50;;
41633;SDS011;37274;51.150;4.808;2022-07-30T02:23:39;1.70;;;0.60;;
41633;SDS011;37274;51.150;4.808;2022-07-30T02:26:08;2.90;;;0.90;;
41633;SDS011;37274;51.150;4.808;2022-07-30T02:28:41;1.95;;;0.70;;
41633;SDS011;37274;51.150;4.808;2022-07-30T02:31:09;5.80;;;0.90;;
41633;SDS011;37274;51.150;4.808;2022-07-30T02:33:43;2.95;;;0.70;;
41633;SDS011;37274;51.150;4.808;2022-07-30T02:36:14;1.77;;;0.60;;
41633;SDS011;37274;51.150;4.808;2022-07-30T02:38:44;1.23;;;0.70;;
41633;SDS011;37274;51.150;4.808;2022-07-30T02:41:11;1.88;;;0.60;;
41633;SDS011;37274;51.150;4.808;2022-07-30T02:43:38;1.88;;;0.82;;
41633;SDS011;37274;51.150;4.808;2022-07-30T02:46:06;1.73;;;0.70;;
41633;SDS011;37274;51.150;4.808;2022-07-30T02:48:33;0.73;;;0.73;;
41633;SDS011;37274;51.150;4.808;2022-07-30T02:51:02;3.13;;;0.65;;
41633;SDS011;37274;51.150;4.808;2022-07-30T02:53:29;2.80;;;0.80;;
41633;SDS011;37274;51.150;4.808;2022-07-30T02:55:56;1.25;;;0.55;;
41633;SDS011;37274;51.150;4.808;2022-07-30T02:58:25;1.75;;;0.77;;
41633;SDS011;37274;51.150;4.808;2022-07-30T03:00:53;0.93;;;0.70;;
41633;SDS011;37274;51.150;4.808;2022-07-30T03:03:21;1.58;;;0.73;;
41633;SDS011;37274;51.150;4.808;2022-07-30T03:05:54;1.65;;;0.65;;
41633;SDS011;37274;51.150;4.808;2022-07-30T03:08:22;2.58;;;0.77;;
41633;SDS011;37274;51.150;4.808;2022-07-30T03:10:52;1.63;;;0.65;;
41633;SDS011;37274;51.150;4.808;2022-07-30T03:13:19;0.70;;;0.50;;
41633;SDS011;37274;51.150;4.808;2022-07-30T03:15:46;1.02;;;0.57;;
41633;SDS011;37274;51.150;4.808;2022-07-30T03:18:15;1.65;;;0.65;;
41633;SDS011;37274;51.150;4.808;2022-07-30T03:20:43;0.95;;;0.65;;
41633;SDS011;37274;51.150;4.808;2022-07-30T03:23:12;1.45;;;0.73;;
41633;SDS011;37274;51.150;4.808;2022-07-30T03:25:40;2.25;;;0.75;;
41633;SDS011;37274;51.150;4.808;2022-07-30T03:28:08;1.70;;;0.60;;
41633;SDS011;37274;51.150;4.808;2022-07-30T03:30:36;0.95;;;0.60;;
41633;SDS011;37274;51.150;4.808;2022-07-30T03:33:02;1.33;;;0.47;;
41633;SDS011;37274;51.150;4.808;2022-07-30T03:35:30;1.23;;;0.65;;
41633;SDS011;37274;51.150;4.808;2022-07-30T03:37:57;1.50;;;0.50;;
41633;SDS011;37274;51.150;4.808;2022-07-30T03:40:24;1.60;;;0.60;;
41633;SDS011;37274;51.150;4.808;2022-07-30T03:42:51;0.63;;;0.60;;
41633;SDS011;37274;51.150;4.808;2022-07-30T03:45:18;2.42;;;0.63;;
41633;SDS011;37274;51.150;4.808;2022-07-30T03:47:45;2.22;;;0.95;;
41633;SDS011;37274;51.150;4.808;2022-07-30T03:50:13;0.80;;;0.50;;
41633;SDS011;37274;51.150;4.808;2022-07-30T03:52:40;1.05;;;0.60;;
41633;SDS011;37274;51.150;4.808;2022-07-30T03:55:08;1.00;;;0.73;;
41633;SDS011;37274;51.150;4.808;2022-07-30T03:57:36;1.75;;;0.45;;
41633;SDS011;37274;51.150;4.808;2022-07-30T04:00:04;0.55;;;0.40;;
41633;SDS011;37274;51.150;4.808;2022-07-30T04:02:40;4.95;;;0.50;;
41633;SDS011;37274;51.150;4.808;2022-07-30T04:05:07;0.75;;;0.73;;
41633;SDS011;37274;51.150;4.808;2022-07-30T04:07:35;0.77;;;0.40;;
41633;SDS011;37274;51.150;4.808;2022-07-30T04:10:10;0.60;;;0.52;;
41633;SDS011;37274;51.150;4.808;2022-07-30T04:12:37;1.08;;;0.50;;
41633;SDS011;37274;51.150;4.808;2022-07-30T04:15:04;1.30;;;0.75;;
41633;SDS011;37274;51.150;4.808;2022-07-30T04:17:52;0.90;;;0.70;;
41633;SDS011;37274;51.150;4.808;2022-07-30T04:20:23;1.17;;;0.65;;
41633;SDS011;37274;51.150;4.808;2022-07-30T04:22:53;0.70;;;0.50;;
41633;SDS011;37274;51.150;4.808;2022-07-30T04:25:20;1.05;;;0.70;;
41633;SDS011;37274;51.150;4.808;2022-07-30T04:27:49;2.15;;;0.70;;
41633;SDS011;37274;51.150;4.808;2022-07-30T04:30:29;1.83;;;0.57;;
41633;SDS011;37274;51.150;4.808;2022-07-30T04:32:55;0.80;;;0.50;;
41633;SDS011;37274;51.150;4.808;2022-07-30T04:35:29;0.90;;;0.43;;
41633;SDS011;37274;51.150;4.808;2022-07-30T04:38:16;0.63;;;0.52;;
41633;SDS011;37274;51.150;4.808;2022-07-30T04:40:43;1.67;;;0.80;;
41633;SDS011;37274;51.150;4.808;2022-07-30T04:43:11;0.65;;;0.63;;
41633;SDS011;37274;51.150;4.808;2022-07-30T04:45:38;1.80;;;0.68;;
41633;SDS011;37274;51.150;4.808;2022-07-30T04:48:05;2.30;;;0.88;;
41633;SDS011;37274;51.150;4.808;2022-07-30T04:50:33;2.45;;;0.90;;
41633;SDS011;37274;51.150;4.808;2022-07-30T04:53:01;2.15;;;1.00;;
41633;SDS011;37274;51.150;4.808;2022-07-30T04:55:28;1.75;;;0.70;;
41633;SDS011;37274;51.150;4.808;2022-07-30T04:57:56;0.85;;;0.77;;
41633;SDS011;37274;51.150;4.808;2022-07-30T05:00:24;0.73;;;0.73;;
41633;SDS011;37274;51.150;4.808;2022-07-30T05:02:51;1.58;;;1.10;;
41633;SDS011;37274;51.150;4.808;2022-07-30T05:05:18;1.13;;;1.02;;
41633;SDS011;37274;51.150;4.808;2022-07-30T05:07:45;0.88;;;0.80;;
41633;SDS011;37274;51.150;4.808;2022-07-30T05:10:12;1.10;;;0.82;;
41633;SDS011;37274;51.150;4.808;2022-07-30T05:12:39;1.08;;;0.80;;
41633;SDS011;37274;51.150;4.808;2022-07-30T05:15:07;1.17;;;0.73;;
41633;SDS011;37274;51.150;4.808;2022-07-30T05:17:35;0.63;;;0.63;;
41633;SDS011;37274;51.150;4.808;2022-07-30T05:20:02;3.75;;;1.00;;
41633;SDS011;37274;51.150;4.808;2022-07-30T05:22:30;1.60;;;0.93;;
41633;SDS011;37274;51.150;4.808;2022-07-30T05:24:56;1.33;;;0.85;;
41633;SDS011;37274;51.150;4.808;2022-07-30T05:27:23;0.93;;;0.80;;
41633;SDS011;37274;51.150;4.808;2022-07-30T05:29:50;1.77;;;0.80;;
41633;SDS011;37274;51.150;4.808;2022-07-30T05:32:20;0.82;;;0.73;;
41633;SDS011;37274;51.150;4.808;2022-07-30T05:34:52;1.23;;;0.88;;
41633;SDS011;37274;51.150;4.808;2022-07-30T05:37:18;2.45;;;0.80;;
41633;SDS011;37274;51.150;4.808;2022-07-30T05:39:45;1.85;;;1.17;;
41633;SDS011;37274;51.150;4.808;2022-07-30T05:42:28;1.35;;;1.25;;
41633;SDS011;37274;51.150;4.808;2022-07-30T05:44:55;1.25;;;1.00;;
41633;SDS011;37274;51.150;4.808;2022-07-30T05:47:22;1.02;;;0.88;;
41633;SDS011;37274;51.150;4.808;2022-07-30T05:49:48;1.20;;;1.10;;
41633;SDS011;37274;51.150;4.808;2022-07-30T05:52:15;1.60;;;1.30;;
41633;SDS011;37274;51.150;4.808;2022-07-30T05:54:42;2.35;;;1.20;;
41633;SDS011;37274;51.150;4.808;2022-07-30T05:57:09;1.40;;;1.30;;
41633;SDS011;37274;51.150;4.808;2022-07-30T05:59:36;0.90;;;0.82;;
41633;SDS011;37274;51.150;4.808;2022-07-30T06:02:03;1.52;;;0.90;;
41633;SDS011;37274;51.150;4.808;2022-07-30T06:04:32;1.13;;;1.02;;
41633;SDS011;37274;51.150;4.808;2022-07-30T06:07:00;1.48;;;1.38;;
41633;SDS011;37274;51.150;4.808;2022-07-30T06:09:28;1.70;;;1.05;;
41633;SDS011;37274;51.150;4.808;2022-07-30T06:12:02;1.33;;;0.90;;
41633;SDS011;37274;51.150;4.808;2022-07-30T06:14:30;1.00;;;0.88;;
41633;SDS011;37274;51.150;4.808;2022-07-30T06:16:57;1.20;;;1.10;;
41633;SDS011;37274;51.150;4.808;2022-07-30T06:19:24;3.22;;;2.80;;
41633;SDS011;37274;51.150;4.808;2022-07-30T06:21:51;7.97;;;3.60;;
41633;SDS011;37274;51.150;4.808;2022-07-30T06:24:32;6.05;;;3.10;;
41633;SDS011;37274;51.150;4.808;2022-07-30T06:26:59;4.35;;;3.47;;
41633;SDS011;37274;51.150;4.808;2022-07-30T06:29:26;7.22;;;6.32;;
41633;SDS011;37274;51.150;4.808;2022-07-30T06:31:53;9.05;;;7.78;;
41633;SDS011;37274;51.150;4.808;2022-07-30T06:34:19;9.25;;;8.25;;
41633;SDS011;37274;51.150;4.808;2022-07-30T06:36:46;8.48;;;7.68;;
41633;SDS011;37274;51.150;4.808;2022-07-30T06:39:13;7.93;;;7.22;;
41633;SDS011;37274;51.150;4.808;2022-07-30T06:42:00;9.38;;;7.55;;
41633;SDS011;37274;51.150;4.808;2022-07-30T06:44:27;10.77;;;8.10;;
41633;SDS011;37274;51.150;4.808;2022-07-30T06:46:53;9.15;;;6.82;;
41633;SDS011;37274;51.150;4.808;2022-07-30T06:49:20;7.93;;;6.28;;
41633;SDS011;37274;51.150;4.808;2022-07-30T06:51:48;7.25;;;6.07;;
41633;SDS011;37274;51.150;4.808;2022-07-30T06:54:14;9.95;;;5.95;;
41633;SDS011;37274;51.150;4.808;2022-07-30T06:56:41;6.18;;;5.57;;
41633;SDS011;37274;51.150;4.808;2022-07-30T06:59:08;9.60;;;5.35;;
41633;SDS011;37274;51.150;4.808;2022-07-30T07:01:35;6.68;;;5.63;;
41633;SDS011;37274;51.150;4.808;2022-07-30T07:04:02;8.02;;;5.60;;
41633;SDS011;37274;51.150;4.808;2022-07-30T07:06:29;6.93;;;5.63;;
41633;SDS011;37274;51.150;4.808;2022-07-30T07:08:57;7.10;;;6.03;;
41633;SDS011;37274;51.150;4.808;2022-07-30T07:11:24;11.68;;;5.32;;
41633;SDS011;37274;51.150;4.808;2022-07-30T07:13:51;7.53;;;4.00;;
41633;SDS011;37274;51.150;4.808;2022-07-30T07:16:17;5.25;;;2.78;;
41633;SDS011;37274;51.150;4.808;2022-07-30T07:18:51;5.53;;;3.08;;
41633;SDS011;37274;51.150;4.808;2022-07-30T07:21:18;2.75;;;2.35;;
41633;SDS011;37274;51.150;4.808;2022-07-30T07:23:46;3.90;;;2.28;;
41633;SDS011;37274;51.150;4.808;2022-07-30T07:26:14;5.97;;;2.45;;
41633;SDS011;37274;51.150;4.808;2022-07-30T07:28:42;3.78;;;2.60;;
41633;SDS011;37274;51.150;4.808;2022-07-30T07:31:09;4.57;;;2.00;;
41633;SDS011;37274;51.150;4.808;2022-07-30T07:33:56;17.52;;;3.20;;
41633;SDS011;37274;51.150;4.808;2022-07-30T07:36:23;11.23;;;2.03;;
41633;SDS011;37274;51.150;4.808;2022-07-30T07:38:49;2.85;;;1.60;;
41633;SDS011;37274;51.150;4.808;2022-07-30T07:41:16;4.60;;;1.70;;
41633;SDS011;37274;51.150;4.808;2022-07-30T07:43:43;5.82;;;1.45;;
41633;SDS011;37274;51.150;4.808;2022-07-30T07:46:09;2.25;;;1.20;;
41633;SDS011;37274;51.150;4.808;2022-07-30T07:48:37;1.98;;;1.33;;
41633;SDS011;37274;51.150;4.808;2022-07-30T07:51:04;3.53;;;1.30;;
41633;SDS011;37274;51.150;4.808;2022-07-30T07:53:34;3.72;;;1.23;;
41633;SDS011;37274;51.150;4.808;2022-07-30T07:56:01;2.83;;;1.08;;
41633;SDS011;37274;51.150;4.808;2022-07-30T07:58:29;7.30;;;1.70;;
41633;SDS011;37274;51.150;4.808;2022-07-30T08:00:56;3.85;;;0.98;;
41633;SDS011;37274;51.150;4.808;2022-07-30T08:03:23;2.70;;;1.10;;
41633;SDS011;37274;51.150;4.808;2022-07-30T08:05:50;2.50;;;1.17;;
41633;SDS011;37274;51.150;4.808;2022-07-30T08:08:31;5.45;;;1.35;;
41633;SDS011;37274;51.150;4.808;2022-07-30T08:11:00;3.17;;;1.20;;
41633;SDS011;37274;51.150;4.808;2022-07-30T08:13:27;2.55;;;0.98;;
41633;SDS011;37274;51.150;4.808;2022-07-30T08:16:14;4.20;;;1.63;;
41633;SDS011;37274;51.150;4.808;2022-07-30T08:18:41;2.55;;;1.55;;
41633;SDS011;37274;51.150;4.808;2022-07-30T08:21:07;3.10;;;1.17;;
41633;SDS011;37274;51.150;4.808;2022-07-30T08:23:34;1.50;;;1.10;;
41633;SDS011;37274;51.150;4.808;2022-07-30T08:26:07;1.92;;;1.20;;
41633;SDS011;37274;51.150;4.808;2022-07-30T08:28:34;2.80;;;1.33;;
41633;SDS011;37274;51.150;4.808;2022-07-30T08:31:02;2.42;;;1.42;;
41633;SDS011;37274;51.150;4.808;2022-07-30T08:33:28;3.45;;;0.90;;
41633;SDS011;37274;51.150;4.808;2022-07-30T08:35:55;2.90;;;0.98;;
41633;SDS011;37274;51.150;4.808;2022-07-30T08:38:34;1.23;;;0.82;;
41633;SDS011;37274;51.150;4.808;2022-07-30T08:41:00;1.05;;;0.85;;
41633;SDS011;37274;51.150;4.808;2022-07-30T08:43:27;1.48;;;0.88;;
41633;SDS011;37274;51.150;4.808;2022-07-30T08:45:55;3.33;;;1.15;;
41633;SDS011;37274;51.150;4.808;2022-07-30T08:48:21;2.90;;;1.02;;
41633;SDS011;37274;51.150;4.808;2022-07-30T08:50:49;2.05;;;0.82;;
41633;SDS011;37274;51.150;4.808;2022-07-30T08:53:16;1.90;;;0.70;;
41633;SDS011;37274;51.150;4.808;2022-07-30T08:55:42;1.48;;;0.93;;
41633;SDS011;37274;51.150;4.808;2022-07-30T08:58:29;2.75;;;0.75;;
41633;SDS011;37274;51.150;4.808;2022-07-30T09:00:59;0.90;;;0.70;;
41633;SDS011;37274;51.150;4.808;2022-07-30T09:03:26;1.63;;;0.80;;
41633;SDS011;37274;51.150;4.808;2022-07-30T09:05:53;3.15;;;1.35;;
41633;SDS011;37274;51.150;4.808;2022-07-30T09:08:20;3.10;;;0.50;;
41633;SDS011;37274;51.150;4.808;2022-07-30T09:10:47;1.20;;;0.75;;
41633;SDS011;37274;51.150;4.808;2022-07-30T09:15:55;1.13;;;0.82;;
41633;SDS011;37274;51.150;4.808;2022-07-30T09:18:30;1.17;;;0.60;;
41633;SDS011;37274;51.150;4.808;2022-07-30T09:21:23;1.50;;;0.80;;
41633;SDS011;37274;51.150;4.808;2022-07-30T09:23:59;1.88;;;0.82;;
41633;SDS011;37274;51.150;4.808;2022-07-30T09:26:52;1.13;;;0.77;;
41633;SDS011;37274;51.150;4.808;2022-07-30T09:29:30;1.08;;;0.80;;
41633;SDS011;37274;51.150;4.808;2022-07-30T09:32:04;2.30;;;0.77;;
41633;SDS011;37274;51.150;4.808;2022-07-30T09:34:33;2.00;;;1.02;;
41633;SDS011;37274;51.150;4.808;2022-07-30T09:37:04;2.88;;;0.88;;
41633;SDS011;37274;51.150;4.808;2022-07-30T09:39:43;2.25;;;0.70;;
41633;SDS011;37274;51.150;4.808;2022-07-30T09:42:25;3.70;;;1.08;;
41633;SDS011;37274;51.150;4.808;2022-07-30T09:45:04;6.22;;;0.95;;
41633;SDS011;37274;51.150;4.808;2022-07-30T09:47:33;1.75;;;0.68;;
41633;SDS011;37274;51.150;4.808;2022-07-30T09:50:04;4.55;;;0.50;;
41633;SDS011;37274;51.150;4.808;2022-07-30T09:52:33;3.08;;;0.50;;
41633;SDS011;37274;51.150;4.808;2022-07-30T09:55:00;3.90;;;0.73;;
41633;SDS011;37274;51.150;4.808;2022-07-30T09:57:28;0.80;;;0.45;;
41633;SDS011;37274;51.150;4.808;2022-07-30T09:59:56;3.78;;;0.60;;
41633;SDS011;37274;51.150;4.808;2022-07-30T10:02:31;0.60;;;0.30;;
41633;SDS011;37274;51.150;4.808;2022-07-30T10:05:12;0.93;;;0.50;;
41633;SDS011;37274;51.150;4.808;2022-07-30T10:07:47;0.68;;;0.57;;
41633;SDS011;37274;51.150;4.808;2022-07-30T10:10:19;2.45;;;0.65;;
41633;SDS011;37274;51.150;4.808;2022-07-30T10:12:52;0.77;;;0.60;;
41633;SDS011;37274;51.150;4.808;2022-07-30T10:15:23;0.80;;;0.57;;
41633;SDS011;37274;51.150;4.808;2022-07-30T10:17:52;1.42;;;0.43;;
41633;SDS011;37274;51.150;4.808;2022-07-30T10:20:19;0.60;;;0.40;;
41633;SDS011;37274;51.150;4.808;2022-07-30T10:22:46;2.22;;;0.70;;
41633;SDS011;37274;51.150;4.808;2022-07-30T10:25:19;1.10;;;0.40;;
41633;SDS011;37274;51.150;4.808;2022-07-30T10:27:53;2.38;;;0.60;;
41633;SDS011;37274;51.150;4.808;2022-07-30T10:30:23;0.70;;;0.30;;
41633;SDS011;37274;51.150;4.808;2022-07-30T10:32:54;1.05;;;0.50;;
41633;SDS011;37274;51.150;4.808;2022-07-30T10:35:22;1.85;;;0.50;;
41633;SDS011;37274;51.150;4.808;2022-07-30T10:38:04;1.35;;;0.50;;
41633;SDS011;37274;51.150;4.808;2022-07-30T10:40:41;1.27;;;0.43;;
41633;SDS011;37274;51.150;4.808;2022-07-30T10:45:55;0.73;;;0.40;;
41633;SDS011;37274;51.150;4.808;2022-07-30T10:48:33;0.75;;;0.35;;
41633;SDS011;37274;51.150;4.808;2022-07-30T10:51:00;0.55;;;0.50;;
41633;SDS011;37274;51.150;4.808;2022-07-30T10:53:32;1.48;;;0.45;;
41633;SDS011;37274;51.150;4.808;2022-07-30T10:56:09;0.93;;;0.43;;
41633;SDS011;37274;51.150;4.808;2022-07-30T11:02:24;0.55;;;0.40;;
41633;SDS011;37274;51.150;4.808;2022-07-30T11:04:33;0.77;;;0.30;;
41633;SDS011;37274;51.150;4.808;2022-07-30T11:09:49;1.20;;;0.60;;
41633;SDS011;37274;51.150;4.808;2022-07-30T11:15:11;0.82;;;0.30;;
41633;SDS011;37274;51.150;4.808;2022-07-30T11:20:38;0.68;;;0.40;;
41633;SDS011;37274;51.150;4.808;2022-07-30T11:23:09;0.43;;;0.30;;
41633;SDS011;37274;51.150;4.808;2022-07-30T11:25:39;0.95;;;0.68;;
41633;SDS011;37274;51.150;4.808;2022-07-30T11:28:32;0.98;;;0.38;;
41633;SDS011;37274;51.150;4.808;2022-07-30T11:31:03;1.10;;;0.60;;
41633;SDS011;37274;51.150;4.808;2022-07-30T11:33:35;0.65;;;0.25;;
41633;SDS011;37274;51.150;4.808;2022-07-30T11:36:13;0.82;;;0.40;;
41633;SDS011;37274;51.150;4.808;2022-07-30T11:38:53;1.13;;;0.40;;
41633;SDS011;37274;51.150;4.808;2022-07-30T11:41:32;0.57;;;0.45;;
41633;SDS011;37274;51.150;4.808;2022-07-30T11:46:55;0.38;;;0.30;;
41633;SDS011;37274;51.150;4.808;2022-07-30T11:49:21;0.43;;;0.30;;
41633;SDS011;37274;51.150;4.808;2022-07-30T11:51:48;0.95;;;0.40;;
41633;SDS011;37274;51.150;4.808;2022-07-30T11:54:16;0.90;;;0.25;;
41633;SDS011;37274;51.150;4.808;2022-07-30T11:56:49;0.75;;;0.30;;
41633;SDS011;37274;51.150;4.808;2022-07-30T11:59:19;1.35;;;0.47;;
41633;SDS011;37274;51.150;4.808;2022-07-30T12:01:52;2.78;;;0.30;;
41633;SDS011;37274;51.150;4.808;2022-07-30T12:04:22;1.03;;;0.33;;
41633;SDS011;37274;51.150;4.808;2022-07-30T12:06:49;0.63;;;0.40;;
41633;SDS011;37274;51.150;4.808;2022-07-30T12:09:23;1.95;;;0.40;;
41633;SDS011;37274;51.150;4.808;2022-07-30T12:11:55;1.15;;;0.50;;
41633;SDS011;37274;51.150;4.808;2022-07-30T12:14:22;33.47;;;4.57;;
41633;SDS011;37274;51.150;4.808;2022-07-30T12:16:49;3.83;;;1.02;;
41633;SDS011;37274;51.150;4.808;2022-07-30T12:19:19;1.77;;;0.55;;
41633;SDS011;37274;51.150;4.808;2022-07-30T12:21:46;0.52;;;0.32;;
41633;SDS011;37274;51.150;4.808;2022-07-30T12:24:22;1.58;;;0.47;;
41633;SDS011;37274;51.150;4.808;2022-07-30T12:26:50;0.68;;;0.57;;
41633;SDS011;37274;51.150;4.808;2022-07-30T12:29:17;3.47;;;0.98;;
41633;SDS011;37274;51.150;4.808;2022-07-30T12:31:43;5.25;;;1.55;;
41633;SDS011;37274;51.150;4.808;2022-07-30T12:34:24;3.60;;;1.25;;
41633;SDS011;37274;51.150;4.808;2022-07-30T12:36:52;4.25;;;1.40;;
41633;SDS011;37274;51.150;4.808;2022-07-30T12:39:21;2.47;;;1.02;;
41633;SDS011;37274;51.150;4.808;2022-07-30T12:41:50;1.90;;;1.02;;
41633;SDS011;37274;51.150;4.808;2022-07-30T12:47:22;3.28;;;1.65;;
41633;SDS011;37274;51.150;4.808;2022-07-30T12:49:53;3.58;;;1.83;;
41633;SDS011;37274;51.150;4.808;2022-07-30T12:52:25;4.80;;;1.48;;
41633;SDS011;37274;51.150;4.808;2022-07-30T12:55:03;4.32;;;1.88;;
41633;SDS011;37274;51.150;4.808;2022-07-30T13:00:24;3.22;;;1.95;;
41633;SDS011;37274;51.150;4.808;2022-07-30T13:02:53;3.60;;;1.88;;
41633;SDS011;37274;51.150;4.808;2022-07-30T13:05:20;5.35;;;2.03;;
41633;SDS011;37274;51.150;4.808;2022-07-30T13:08:07;4.03;;;1.90;;
41633;SDS011;37274;51.150;4.808;2022-07-30T13:10:34;4.28;;;1.83;;
41633;SDS011;37274;51.150;4.808;2022-07-30T13:13:01;3.00;;;2.10;;
41633;SDS011;37274;51.150;4.808;2022-07-30T13:15:27;6.50;;;1.95;;
41633;SDS011;37274;51.150;4.808;2022-07-30T13:17:54;3.65;;;1.52;;
41633;SDS011;37274;51.150;4.808;2022-07-30T13:20:21;4.82;;;1.80;;
41633;SDS011;37274;51.150;4.808;2022-07-30T13:22:48;3.22;;;1.80;;
41633;SDS011;37274;51.150;4.808;2022-07-30T13:25:15;4.35;;;1.23;;
41633;SDS011;37274;51.150;4.808;2022-07-30T13:27:41;3.90;;;1.95;;
41633;SDS011;37274;51.150;4.808;2022-07-30T13:30:08;1.92;;;1.10;;
41633;SDS011;37274;51.150;4.808;2022-07-30T13:32:36;3.97;;;1.77;;
41633;SDS011;37274;51.150;4.808;2022-07-30T13:35:03;2.50;;;1.40;;
41633;SDS011;37274;51.150;4.808;2022-07-30T13:37:30;1.88;;;1.63;;
41633;SDS011;37274;51.150;4.808;2022-07-30T13:40:04;3.90;;;1.25;;
41633;SDS011;37274;51.150;4.808;2022-07-30T13:42:31;2.97;;;1.30;;
41633;SDS011;37274;51.150;4.808;2022-07-30T13:44:58;2.38;;;1.20;;
41633;SDS011;37274;51.150;4.808;2022-07-30T13:47:25;4.90;;;1.60;;
41633;SDS011;37274;51.150;4.808;2022-07-30T13:49:51;5.05;;;1.42;;
41633;SDS011;37274;51.150;4.808;2022-07-30T13:52:18;2.20;;;1.23;;
41633;SDS011;37274;51.150;4.808;2022-07-30T13:54:45;4.78;;;1.88;;
41633;SDS011;37274;51.150;4.808;2022-07-30T13:57:12;4.07;;;1.60;;
41633;SDS011;37274;51.150;4.808;2022-07-30T13:59:38;1.77;;;1.42;;
41633;SDS011;37274;51.150;4.808;2022-07-30T14:02:05;3.17;;;1.30;;
41633;SDS011;37274;51.150;4.808;2022-07-30T14:04:32;2.17;;;1.10;;
41633;SDS011;37274;51.150;4.808;2022-07-30T14:06:59;2.78;;;0.95;;
41633;SDS011;37274;51.150;4.808;2022-07-30T14:09:26;3.80;;;1.15;;
41633;SDS011;37274;51.150;4.808;2022-07-30T14:11:53;4.00;;;1.25;;
41633;SDS011;37274;51.150;4.808;2022-07-30T14:14:20;2.60;;;1.52;;
41633;SDS011;37274;51.150;4.808;2022-07-30T14:16:48;2.92;;;1.10;;
41633;SDS011;37274;51.150;4.808;2022-07-30T14:19:19;1.95;;;1.00;;
41633;SDS011;37274;51.150;4.808;2022-07-30T14:21:49;3.92;;;1.30;;
41633;SDS011;37274;51.150;4.808;2022-07-30T14:24:18;1.70;;;1.17;;
41633;SDS011;37274;51.150;4.808;2022-07-30T14:26:45;1.85;;;1.38;;
41633;SDS011;37274;51.150;4.808;2022-07-30T14:29:12;2.17;;;1.13;;
41633;SDS011;37274;51.150;4.808;2022-07-30T14:31:38;2.38;;;1.20;;
41633;SDS011;37274;51.150;4.808;2022-07-30T14:34:05;3.45;;;1.25;;
41633;SDS011;37274;51.150;4.808;2022-07-30T14:36:32;2.08;;;1.20;;
41633;SDS011;37274;51.150;4.808;2022-07-30T14:38:59;2.10;;;1.38;;
41633;SDS011;37274;51.150;4.808;2022-07-30T14:41:30;1.95;;;1.17;;
41633;SDS011;37274;51.150;4.808;2022-07-30T14:43:57;1.92;;;0.98;;
41633;SDS011;37274;51.150;4.808;2022-07-30T14:46:24;4.07;;;1.52;;
41633;SDS011;37274;51.150;4.808;2022-07-30T14:48:50;2.35;;;1.02;;
41633;SDS011;37274;51.150;4.808;2022-07-30T14:51:17;2.97;;;1.25;;
41633;SDS011;37274;51.150;4.808;2022-07-30T14:53:51;3.28;;;1.20;;
41633;SDS011;37274;51.150;4.808;2022-07-30T14:56:18;1.60;;;1.20;;
41633;SDS011;37274;51.150;4.808;2022-07-30T14:58:46;3.58;;;1.30;;
41633;SDS011;37274;51.150;4.808;2022-07-30T15:01:13;1.30;;;0.82;;
41633;SDS011;37274;51.150;4.808;2022-07-30T15:03:42;3.88;;;1.20;;
41633;SDS011;37274;51.150;4.808;2022-07-30T15:06:09;2.22;;;1.00;;
41633;SDS011;37274;51.150;4.808;2022-07-30T15:08:38;2.78;;;0.80;;
41633;SDS011;37274;51.150;4.808;2022-07-30T15:11:05;1.10;;;0.95;;
41633;SDS011;37274;51.150;4.808;2022-07-30T15:13:33;2.47;;;1.25;;
41633;SDS011;37274;51.150;4.808;2022-07-30T15:16:01;2.78;;;1.33;;
41633;SDS011;37274;51.150;4.808;2022-07-30T15:18:28;1.77;;;1.20;;
41633;SDS011;37274;51.150;4.808;2022-07-30T15:20:55;1.48;;;1.13;;
41633;SDS011;37274;51.150;4.808;2022-07-30T15:23:21;2.03;;;1.38;;
41633;SDS011;37274;51.150;4.808;2022-07-30T15:25:48;1.63;;;1.05;;
41633;SDS011;37274;51.150;4.808;2022-07-30T15:28:15;23.38;;;3.40;;
41633;SDS011;37274;51.150;4.808;2022-07-30T15:30:42;6.32;;;1.30;;
41633;SDS011;37274;51.150;4.808;2022-07-30T15:33:09;1.40;;;1.20;;